createdAt,value
2017-04-09T00:00:32.942Z,47.00
2017-04-09T00:01:33.708Z,49.00
2017-04-09T00:02:34.730Z,43.00
2017-04-09T00:03:35.495Z,39.00
2017-04-09T00:04:36.261Z,78.00
2017-04-09T00:05:37.214Z,51.00
2017-04-09T00:06:37.980Z,57.00
2017-04-09T00:07:38.996Z,44.00
2017-04-09T00:08:39.763Z,41.00
2017-04-09T00:09:40.535Z,40.00
2017-04-09T00:10:41.300Z,45.00
2017-04-09T00:11:42.068Z,44.00
2017-04-09T00:12:43.083Z,55.00
2017-04-09T00:13:43.850Z,54.00
2017-04-09T00:14:44.618Z,46.00
2017-04-09T00:15:45.384Z,49.00
2017-04-09T00:16:46.154Z,42.00
2017-04-09T00:17:47.171Z,53.00
2017-04-09T00:18:47.940Z,51.00
2017-04-09T00:19:48.704Z,52.00
2017-04-09T00:20:49.474Z,47.00
2017-04-09T00:21:50.239Z,47.00
2017-04-09T00:22:51.307Z,45.00
2017-04-09T00:23:52.074Z,43.00
2017-04-09T00:24:52.841Z,44.00
2017-04-09T00:25:53.610Z,41.00
2017-04-09T00:26:54.378Z,41.00
2017-04-09T00:27:55.444Z,40.00
2017-04-09T00:28:56.207Z,41.00
2017-04-09T00:29:56.978Z,38.00
2017-04-09T00:30:57.744Z,50.00
2017-04-09T00:31:58.513Z,40.00
2017-04-09T00:32:59.583Z,43.00
2017-04-09T00:34:00.357Z,59.00
2017-04-09T00:35:01.120Z,52.00
2017-04-09T00:36:01.889Z,42.00
2017-04-09T00:37:02.654Z,44.00
2017-04-09T00:38:03.673Z,41.00
2017-04-09T00:39:04.438Z,51.00
2017-04-09T00:40:05.203Z,47.00
2017-04-09T00:41:05.970Z,45.00
2017-04-09T00:42:06.737Z,47.00
2017-04-09T00:43:07.803Z,51.00
2017-04-09T00:44:08.573Z,51.00
2017-04-09T00:45:09.336Z,38.00
2017-04-09T00:46:10.103Z,44.00
2017-04-09T00:47:10.872Z,42.00
2017-04-09T00:48:11.889Z,43.00
2017-04-09T00:49:12.659Z,48.00
2017-04-09T00:50:13.430Z,41.00
2017-04-09T00:51:14.195Z,36.00
2017-04-09T00:52:14.962Z,47.00
2017-04-09T00:53:16.027Z,45.00
2017-04-09T00:54:16.798Z,41.00
2017-04-09T00:55:17.563Z,39.00
2017-04-09T00:56:18.333Z,43.00
2017-04-09T00:57:19.099Z,45.00
2017-04-09T00:58:20.122Z,53.00
2017-04-09T00:59:20.888Z,44.00
2017-04-09T01:00:21.658Z,47.00
2017-04-09T01:01:22.423Z,41.00
2017-04-09T01:02:23.192Z,43.00
2017-04-09T01:03:24.206Z,56.00
2017-04-09T01:04:24.977Z,49.00
2017-04-09T01:05:25.743Z,51.00
2017-04-09T01:06:26.514Z,42.00
2017-04-09T01:07:27.279Z,52.00
2017-04-09T01:08:28.300Z,47.00
2017-04-09T01:09:29.065Z,41.00
2017-04-09T01:10:29.834Z,40.00
2017-04-09T01:11:30.602Z,53.00
2017-04-09T01:12:31.369Z,43.00
2017-04-09T01:13:32.384Z,39.00
2017-04-09T01:14:33.153Z,42.00
2017-04-09T01:15:34.104Z,51.00
2017-04-09T01:16:34.870Z,49.00
2017-04-09T01:17:35.637Z,58.00
2017-04-09T01:18:36.660Z,43.00
2017-04-09T01:19:37.423Z,47.00
2017-04-09T01:20:38.188Z,38.00
2017-04-09T01:21:38.957Z,71.00
2017-04-09T01:22:39.721Z,57.00
2017-04-09T01:23:40.741Z,48.00
2017-04-09T01:24:41.504Z,50.00
2017-04-09T01:25:42.278Z,42.00
2017-04-09T01:26:43.338Z,60.00
2017-04-09T01:27:44.105Z,55.00
2017-04-09T01:28:44.871Z,54.00
2017-04-09T01:29:45.642Z,46.00
2017-04-09T01:30:46.404Z,50.00
2017-04-09T01:31:47.421Z,52.00
2017-04-09T01:32:48.188Z,56.00
2017-04-09T01:33:48.954Z,63.00
2017-04-09T01:34:49.719Z,54.00
2017-04-09T01:35:50.489Z,54.00
2017-04-09T01:36:51.503Z,43.00
2017-04-09T01:37:52.271Z,45.00
2017-04-09T01:38:53.040Z,44.00
2017-04-09T01:39:53.805Z,52.00
2017-04-09T01:40:54.575Z,52.00
2017-04-09T01:41:55.590Z,43.00
2017-04-09T01:42:56.358Z,54.00
2017-04-09T01:43:57.125Z,53.00
2017-04-09T01:44:57.892Z,42.00
2017-04-09T01:45:58.660Z,49.00
2017-04-09T01:46:59.678Z,58.00
2017-04-09T01:48:00.626Z,54.00
2017-04-09T01:49:01.394Z,46.00
2017-04-09T01:50:02.161Z,57.00
2017-04-09T01:51:02.927Z,44.00
2017-04-09T01:52:03.946Z,49.00
2017-04-09T01:53:04.713Z,52.00
2017-04-09T01:54:05.481Z,51.00
2017-04-09T01:55:06.246Z,42.00
2017-04-09T01:56:07.016Z,53.00
2017-04-09T01:57:08.029Z,45.00
2017-04-09T01:58:08.796Z,49.00
2017-04-09T01:59:09.562Z,49.00
2017-04-09T02:00:10.325Z,51.00
2017-04-09T02:01:11.093Z,62.00
2017-04-09T02:02:12.109Z,50.00
2017-04-09T02:03:12.875Z,55.00
2017-04-09T02:04:13.645Z,66.00
2017-04-09T02:05:14.409Z,51.00
2017-04-09T02:06:15.175Z,45.00
2017-04-09T02:07:16.191Z,61.00
2017-04-09T02:08:16.954Z,57.00
2017-04-09T02:09:17.726Z,53.00
2017-04-09T02:10:18.490Z,59.00
2017-04-09T02:11:19.255Z,50.00
2017-04-09T02:12:20.270Z,54.00
2017-04-09T02:13:21.038Z,58.00
2017-04-09T02:14:21.806Z,58.00
2017-04-09T02:15:22.573Z,50.00
2017-04-09T02:16:23.342Z,53.00
2017-04-09T02:17:24.355Z,39.00
2017-04-09T02:18:25.121Z,40.00
2017-04-09T02:19:25.888Z,47.00
2017-04-09T02:20:26.654Z,51.00
2017-04-09T02:21:27.430Z,58.00
2017-04-09T02:22:28.443Z,55.00
2017-04-09T02:23:29.208Z,54.00
2017-04-09T02:24:29.974Z,40.00
2017-04-09T02:25:30.739Z,44.00
2017-04-09T02:26:31.505Z,58.00
2017-04-09T02:27:32.524Z,64.00
2017-04-09T02:28:33.291Z,43.00
2017-04-09T02:29:34.059Z,44.00
2017-04-09T02:30:34.826Z,50.00
2017-04-09T02:31:35.588Z,57.00
2017-04-09T02:32:36.603Z,52.00
2017-04-09T02:33:37.371Z,46.00
2017-04-09T02:34:38.140Z,45.00
2017-04-09T02:35:38.908Z,47.00
2017-04-09T02:36:39.673Z,52.00
2017-04-09T02:37:40.693Z,37.00
2017-04-09T02:38:41.462Z,51.00
2017-04-09T02:39:42.230Z,44.00
2017-04-09T02:40:42.999Z,49.00
2017-04-09T02:41:43.766Z,54.00
2017-04-09T02:42:44.785Z,46.00
2017-04-09T02:43:45.552Z,49.00
2017-04-09T02:44:46.317Z,55.00
2017-04-09T02:45:47.082Z,49.00
2017-04-09T02:46:47.854Z,51.00
2017-04-09T02:47:48.868Z,59.00
2017-04-09T02:48:49.636Z,55.00
2017-04-09T02:49:50.401Z,59.00
2017-04-09T02:50:51.169Z,60.00
2017-04-09T02:51:51.938Z,44.00
2017-04-09T02:52:52.955Z,62.00
2017-04-09T02:53:53.720Z,56.00
2017-04-09T02:54:54.487Z,47.00
2017-04-09T02:55:55.251Z,46.00
2017-04-09T02:56:56.017Z,66.00
2017-04-09T02:57:57.032Z,48.00
2017-04-09T02:58:57.801Z,41.00
2017-04-09T02:59:58.567Z,58.00
2017-04-09T03:00:59.334Z,46.00
2017-04-09T03:02:00.100Z,56.00
2017-04-09T03:03:01.119Z,50.00
2017-04-09T03:04:01.889Z,51.00
2017-04-09T03:05:02.659Z,50.00
2017-04-09T03:06:03.426Z,62.00
2017-04-09T03:07:04.189Z,46.00
2017-04-09T03:08:05.206Z,41.00
2017-04-09T03:09:05.974Z,41.00
2017-04-09T03:10:06.739Z,42.00
2017-04-09T03:11:07.504Z,41.00
2017-04-09T03:12:08.272Z,51.00
2017-04-09T03:13:09.287Z,57.00
2017-04-09T03:14:10.056Z,52.00
2017-04-09T03:15:10.820Z,38.00
2017-04-09T03:16:11.586Z,56.00
2017-04-09T03:17:12.356Z,55.00
2017-04-09T03:18:13.370Z,44.00
2017-04-09T03:19:14.141Z,50.00
2017-04-09T03:20:14.909Z,67.00
2017-04-09T03:21:15.673Z,51.00
2017-04-09T03:22:16.441Z,50.00
2017-04-09T03:23:17.462Z,45.00
2017-04-09T03:24:18.226Z,50.00
2017-04-09T03:25:18.996Z,62.00
2017-04-09T03:26:19.758Z,42.00
2017-04-09T03:27:20.530Z,63.00
2017-04-09T03:28:21.549Z,64.00
2017-04-09T03:29:22.313Z,47.00
2017-04-09T03:30:23.077Z,54.00
2017-04-09T03:31:23.843Z,50.00
2017-04-09T03:32:24.616Z,51.00
2017-04-09T03:33:25.634Z,56.00
2017-04-09T03:34:26.401Z,56.00
2017-04-09T03:35:27.163Z,53.00
2017-04-09T03:36:27.932Z,57.00
2017-04-09T03:37:28.696Z,43.00
2017-04-09T03:38:29.719Z,46.00
2017-04-09T03:39:30.484Z,47.00
2017-04-09T03:40:31.255Z,45.00
2017-04-09T03:41:32.020Z,43.00
2017-04-09T03:42:32.790Z,52.00
2017-04-09T03:43:33.802Z,40.00
2017-04-09T03:44:34.570Z,53.00
2017-04-09T03:45:35.333Z,50.00
2017-04-09T03:46:36.099Z,57.00
2017-04-09T03:47:36.869Z,50.00
2017-04-09T03:48:37.882Z,63.00
2017-04-09T03:49:38.651Z,59.00
2017-04-09T03:50:39.415Z,48.00
2017-04-09T03:51:40.180Z,46.00
2017-04-09T03:52:40.945Z,51.00
2017-04-09T03:53:41.959Z,47.00
2017-04-09T03:54:42.726Z,48.00
2017-04-09T03:55:43.492Z,50.00
2017-04-09T03:56:44.259Z,46.00
2017-04-09T03:57:45.023Z,55.00
2017-04-09T03:58:46.041Z,56.00
2017-04-09T03:59:46.808Z,49.00
2017-04-09T04:00:47.573Z,51.00
2017-04-09T04:01:48.341Z,65.00
2017-04-09T04:02:49.105Z,61.00
2017-04-09T04:03:50.121Z,42.00
2017-04-09T04:04:50.888Z,52.00
2017-04-09T04:05:51.654Z,54.00
2017-04-09T04:06:52.419Z,47.00
2017-04-09T04:07:53.185Z,59.00
2017-04-09T04:08:54.204Z,51.00
2017-04-09T04:09:54.969Z,52.00
2017-04-09T04:10:55.737Z,57.00
2017-04-09T04:11:56.500Z,55.00
2017-04-09T04:12:57.270Z,50.00
2017-04-09T04:13:58.283Z,58.00
2017-04-09T04:14:59.051Z,43.00
2017-04-09T04:15:59.812Z,68.00
2017-04-09T04:17:00.579Z,72.00
2017-04-09T04:18:01.346Z,65.00
2017-04-09T04:19:02.362Z,53.00
2017-04-09T04:20:03.128Z,51.00
2017-04-09T04:21:03.895Z,44.00
2017-04-09T04:22:04.676Z,43.00
2017-04-09T04:23:05.427Z,52.00
2017-04-09T04:24:06.441Z,60.00
2017-04-09T04:25:07.206Z,54.00
2017-04-09T04:26:07.973Z,54.00
2017-04-09T04:27:08.741Z,63.00
2017-04-09T04:28:09.509Z,53.00
2017-04-09T04:29:10.527Z,54.00
2017-04-09T04:30:11.292Z,48.00
2017-04-09T04:31:12.055Z,59.00
2017-04-09T04:32:12.824Z,50.00
2017-04-09T04:33:13.592Z,51.00
2017-04-09T04:34:14.607Z,51.00
2017-04-09T04:35:15.377Z,59.00
2017-04-09T04:36:16.141Z,71.00
2017-04-09T04:37:16.903Z,68.00
2017-04-09T04:38:17.675Z,62.00
2017-04-09T04:39:18.688Z,47.00
2017-04-09T04:40:19.456Z,54.00
2017-04-09T04:41:20.225Z,52.00
2017-04-09T04:42:20.996Z,63.00
2017-04-09T04:43:21.764Z,53.00
2017-04-09T04:44:22.969Z,68.00
2017-04-09T04:45:23.737Z,57.00
2017-04-09T04:46:24.502Z,70.00
2017-04-09T04:47:25.272Z,57.00
2017-04-09T04:48:26.042Z,62.00
2017-04-09T04:49:27.055Z,59.00
2017-04-09T04:50:27.824Z,72.00
2017-04-09T04:51:28.594Z,58.00
2017-04-09T04:52:29.366Z,64.00
2017-04-09T04:53:30.138Z,59.00
2017-04-09T04:54:31.157Z,62.00
2017-04-09T04:55:31.926Z,60.00
2017-04-09T04:56:32.693Z,55.00
2017-04-09T04:57:33.465Z,52.00
2017-04-09T04:58:34.237Z,53.00
2017-04-09T04:59:35.258Z,61.00
2017-04-09T05:00:36.028Z,62.00
2017-04-09T05:01:36.796Z,47.00
2017-04-09T05:02:37.570Z,56.00
2017-04-09T05:03:38.336Z,64.00
2017-04-09T05:04:39.351Z,54.00
2017-04-09T05:05:40.120Z,52.00
2017-04-09T05:06:40.894Z,55.00
2017-04-09T05:07:41.669Z,54.00
2017-04-09T05:08:42.436Z,69.00
2017-04-09T05:09:43.457Z,60.00
2017-04-09T05:10:44.225Z,58.00
2017-04-09T05:11:45.000Z,76.00
2017-04-09T05:12:45.767Z,39.00
2017-04-09T05:13:46.534Z,49.00
2017-04-09T05:14:47.557Z,50.00
2017-04-09T05:15:48.326Z,59.00
2017-04-09T05:16:49.097Z,56.00
2017-04-09T05:17:49.870Z,61.00
2017-04-09T05:18:50.651Z,66.00
2017-04-09T05:19:51.657Z,56.00
2017-04-09T05:20:52.563Z,64.00
2017-04-09T05:21:54.588Z,61.00
2017-04-09T05:22:55.409Z,58.00
2017-04-09T05:23:56.259Z,50.00
2017-04-09T05:24:57.470Z,71.00
2017-04-09T05:25:58.590Z,57.00
2017-04-09T05:26:59.415Z,56.00
2017-04-09T05:28:00.185Z,60.00
2017-04-09T05:29:00.957Z,63.00
2017-04-09T05:30:01.980Z,65.00
2017-04-09T05:31:02.750Z,44.00
2017-04-09T05:32:03.524Z,50.00
2017-04-09T05:33:04.291Z,53.00
2017-04-09T05:34:05.064Z,56.00
2017-04-09T05:35:06.084Z,50.00
2017-04-09T05:36:06.855Z,50.00
2017-04-09T05:37:07.627Z,67.00
2017-04-09T05:38:08.397Z,62.00
2017-04-09T05:39:09.168Z,54.00
2017-04-09T05:40:10.188Z,55.00
2017-04-09T05:41:10.961Z,63.00
2017-04-09T05:42:11.730Z,53.00
2017-04-09T05:43:12.532Z,56.00
2017-04-09T05:44:13.297Z,58.00
2017-04-09T05:45:14.313Z,64.00
2017-04-09T05:46:15.162Z,64.00
2017-04-09T05:47:15.965Z,53.00
2017-04-09T05:48:16.734Z,53.00
2017-04-09T05:49:17.508Z,55.00
2017-04-09T05:50:18.530Z,57.00
2017-04-09T05:51:19.333Z,65.00
2017-04-09T05:52:20.097Z,58.00
2017-04-09T05:53:20.868Z,52.00
2017-04-09T05:54:21.640Z,68.00
2017-04-09T05:55:22.671Z,80.00
2017-04-09T05:56:23.557Z,63.00
2017-04-09T05:57:24.352Z,74.00
2017-04-09T05:58:25.222Z,62.00
2017-04-09T05:59:25.991Z,62.00
2017-04-09T06:00:27.091Z,64.00
2017-04-09T06:01:27.862Z,59.00
2017-04-09T06:02:28.635Z,75.00
2017-04-09T06:03:29.407Z,70.00
2017-04-09T06:04:30.181Z,74.00
2017-04-09T06:05:31.204Z,77.00
2017-04-09T06:06:32.027Z,73.00
2017-04-09T06:07:32.802Z,81.00
2017-04-09T06:08:33.577Z,69.00
2017-04-09T06:09:34.352Z,66.00
2017-04-09T06:10:35.377Z,55.00
2017-04-09T06:11:36.150Z,72.00
2017-04-09T06:12:36.928Z,69.00
2017-04-09T06:13:37.694Z,63.00
2017-04-09T06:14:38.467Z,67.00
2017-04-09T06:15:39.491Z,58.00
2017-04-09T06:16:40.269Z,66.00
2017-04-09T06:17:41.038Z,54.00
2017-04-09T06:18:41.811Z,67.00
2017-04-09T06:19:42.638Z,54.00
2017-04-09T06:20:43.692Z,56.00
2017-04-09T06:21:44.462Z,68.00
2017-04-09T06:22:45.273Z,77.00
2017-04-09T06:23:46.006Z,71.00
2017-04-09T06:24:46.779Z,62.00
2017-04-09T06:25:47.800Z,72.00
2017-04-09T06:26:48.604Z,87.00
2017-04-09T06:27:49.429Z,66.00
2017-04-09T06:28:50.270Z,67.00
2017-04-09T06:29:51.053Z,75.00
2017-04-09T06:30:52.154Z,62.00
2017-04-09T06:31:52.943Z,60.00
2017-04-09T06:32:53.717Z,63.00
2017-04-09T06:33:54.492Z,62.00
2017-04-09T06:34:55.267Z,60.00
2017-04-09T06:35:56.297Z,67.00
2017-04-09T06:36:57.072Z,70.00
2017-04-09T06:37:57.851Z,55.00
2017-04-09T06:38:58.626Z,75.00
2017-04-09T06:39:59.405Z,70.00
2017-04-09T06:41:00.433Z,71.00
2017-04-09T06:42:01.211Z,57.00
2017-04-09T06:43:01.989Z,68.00
2017-04-09T06:44:02.772Z,63.00
2017-04-09T06:45:03.555Z,66.00
2017-04-09T06:46:04.580Z,88.00
2017-04-09T06:47:05.362Z,65.00
2017-04-09T06:48:06.145Z,66.00
2017-04-09T06:49:06.922Z,93.00
2017-04-09T06:50:07.706Z,91.00
2017-04-09T06:51:08.739Z,104.00
2017-04-09T06:52:09.517Z,97.00
2017-04-09T06:53:10.298Z,86.00
2017-04-09T06:54:11.078Z,97.00
2017-04-09T06:55:11.863Z,107.00
2017-04-09T06:56:12.895Z,94.00
2017-04-09T06:57:13.678Z,102.00
2017-04-09T06:58:14.647Z,95.00
2017-04-09T06:59:15.428Z,89.00
2017-04-09T07:00:16.208Z,97.00
2017-04-09T07:01:17.243Z,95.00
2017-04-09T07:02:18.026Z,98.00
2017-04-09T07:03:18.808Z,84.00
2017-04-09T07:04:19.593Z,103.00
2017-04-09T07:05:20.377Z,96.00
2017-04-09T07:06:21.412Z,107.00
2017-04-09T07:07:22.197Z,86.00
2017-04-09T07:08:22.976Z,95.00
2017-04-09T07:09:23.762Z,100.00
2017-04-09T07:10:24.542Z,108.00
2017-04-09T07:11:25.576Z,84.00
2017-04-09T07:12:26.359Z,107.00
2017-04-09T07:13:27.144Z,94.00
2017-04-09T07:14:27.926Z,85.00
2017-04-09T07:15:28.713Z,86.00
2017-04-09T07:16:29.744Z,82.00
2017-04-09T07:17:30.528Z,101.00
2017-04-09T07:18:31.314Z,86.00
2017-04-09T07:19:32.099Z,91.00
2017-04-09T07:20:32.885Z,104.00
2017-04-09T07:21:33.919Z,108.00
2017-04-09T07:22:34.700Z,94.00
2017-04-09T07:23:35.487Z,89.00
2017-04-09T07:24:36.270Z,115.00
2017-04-09T07:25:37.057Z,126.00
2017-04-09T07:26:38.091Z,88.00
2017-04-09T07:27:38.877Z,97.00
2017-04-09T07:28:39.660Z,101.00
2017-04-09T07:29:40.447Z,116.00
2017-04-09T07:30:41.232Z,94.00
2017-04-09T07:31:42.267Z,94.00
2017-04-09T07:32:43.052Z,80.00
2017-04-09T07:33:43.841Z,94.00
2017-04-09T07:34:44.629Z,85.00
2017-04-09T07:35:45.408Z,88.00
2017-04-09T07:36:46.629Z,75.00
2017-04-09T07:37:47.414Z,74.00
2017-04-09T07:38:48.202Z,79.00
2017-04-09T07:39:48.983Z,79.00
2017-04-09T07:40:49.769Z,92.00
2017-04-09T07:41:50.806Z,81.00
2017-04-09T07:42:51.589Z,74.00
2017-04-09T07:43:52.374Z,75.00
2017-04-09T07:44:53.159Z,83.00
2017-04-09T07:45:53.948Z,81.00
2017-04-09T07:46:54.987Z,73.00
2017-04-09T07:47:55.770Z,90.00
2017-04-09T07:48:56.559Z,86.00
2017-04-09T07:49:57.345Z,85.00
2017-04-09T07:50:58.131Z,82.00
2017-04-09T07:51:59.166Z,89.00
2017-04-09T07:52:59.953Z,78.00
2017-04-09T07:54:00.740Z,84.00
2017-04-09T07:55:01.528Z,90.00
2017-04-09T07:56:02.322Z,77.00
2017-04-09T07:57:03.359Z,95.00
2017-04-09T07:58:04.149Z,81.00
2017-04-09T07:59:04.940Z,93.00
2017-04-09T08:00:05.730Z,70.00
2017-04-09T08:01:06.522Z,91.00
2017-04-09T08:02:07.529Z,72.00
2017-04-09T08:03:08.322Z,84.00
2017-04-09T08:04:09.112Z,74.00
2017-04-09T08:05:09.901Z,85.00
2017-04-09T08:06:10.691Z,81.00
2017-04-09T08:07:11.735Z,82.00
2017-04-09T08:08:12.527Z,77.00
2017-04-09T08:09:13.317Z,90.00
2017-04-09T08:10:14.106Z,82.00
2017-04-09T08:11:14.900Z,83.00
2017-04-09T08:12:15.946Z,75.00
2017-04-09T08:13:16.731Z,88.00
2017-04-09T08:14:17.522Z,79.00
2017-04-09T08:15:18.317Z,68.00
2017-04-09T08:16:19.113Z,75.00
2017-04-09T08:17:20.156Z,82.00
2017-04-09T08:18:20.946Z,79.00
2017-04-09T08:19:21.740Z,81.00
2017-04-09T08:20:22.530Z,78.00
2017-04-09T08:21:23.328Z,76.00
2017-04-09T08:22:24.367Z,80.00
2017-04-09T08:23:25.163Z,71.00
2017-04-09T08:24:25.956Z,79.00
2017-04-09T08:25:26.748Z,76.00
2017-04-09T08:26:27.545Z,90.00
2017-04-09T08:27:28.587Z,90.00
2017-04-09T08:28:29.387Z,86.00
2017-04-09T08:29:30.177Z,76.00
2017-04-09T08:30:30.973Z,79.00
2017-04-09T08:31:31.767Z,86.00
2017-04-09T08:32:32.809Z,80.00
2017-04-09T08:33:33.603Z,65.00
2017-04-09T08:34:34.393Z,86.00
2017-04-09T08:35:35.181Z,70.00
2017-04-09T08:36:35.974Z,82.00
2017-04-09T08:37:37.015Z,68.00
2017-04-09T08:38:37.806Z,66.00
2017-04-09T08:39:38.600Z,71.00
2017-04-09T08:40:39.394Z,71.00
2017-04-09T08:41:40.184Z,73.00
2017-04-09T08:42:41.225Z,62.00
2017-04-09T08:43:42.016Z,67.00
2017-04-09T08:44:42.808Z,83.00
2017-04-09T08:45:43.599Z,75.00
2017-04-09T08:46:44.391Z,67.00
2017-04-09T08:47:45.432Z,74.00
2017-04-09T08:48:46.229Z,80.00
2017-04-09T08:49:47.023Z,62.00
2017-04-09T08:50:47.816Z,68.00
2017-04-09T08:51:48.611Z,74.00
2017-04-09T08:52:49.650Z,71.00
2017-04-09T08:53:50.445Z,60.00
2017-04-09T08:54:51.241Z,63.00
2017-04-09T08:55:52.035Z,83.00
2017-04-09T08:56:52.829Z,64.00
2017-04-09T08:57:53.875Z,72.00
2017-04-09T08:58:54.665Z,61.00
2017-04-09T08:59:55.457Z,62.00
2017-04-09T09:00:56.251Z,66.00
2017-04-09T09:01:57.049Z,65.00
2017-04-09T09:02:58.095Z,68.00
2017-04-09T09:03:58.888Z,65.00
2017-04-09T09:04:59.682Z,61.00
2017-04-09T09:06:00.477Z,60.00
2017-04-09T09:07:01.274Z,66.00
2017-04-09T09:08:02.320Z,60.00
2017-04-09T09:09:03.119Z,63.00
2017-04-09T09:10:03.915Z,61.00
2017-04-09T09:11:04.709Z,59.00
2017-04-09T09:12:05.505Z,63.00
2017-04-09T09:13:06.550Z,65.00
2017-04-09T09:14:07.344Z,67.00
2017-04-09T09:15:08.142Z,56.00
2017-04-09T09:16:08.935Z,64.00
2017-04-09T09:17:09.734Z,70.00
2017-04-09T09:18:10.781Z,62.00
2017-04-09T09:19:11.579Z,73.00
2017-04-09T09:20:12.380Z,62.00
2017-04-09T09:21:13.178Z,71.00
2017-04-09T09:22:13.976Z,62.00
2017-04-09T09:23:15.023Z,77.00
2017-04-09T09:24:15.827Z,85.00
2017-04-09T09:25:16.615Z,69.00
2017-04-09T09:26:17.411Z,72.00
2017-04-09T09:27:18.210Z,70.00
2017-04-09T09:28:19.259Z,78.00
2017-04-09T09:29:20.054Z,85.00
2017-04-09T09:30:20.852Z,71.00
2017-04-09T09:31:21.654Z,76.00
2017-04-09T09:32:22.459Z,77.00
2017-04-09T09:33:23.507Z,87.00
2017-04-09T09:34:24.310Z,92.00
2017-04-09T09:35:25.110Z,76.00
2017-04-09T09:36:25.908Z,76.00
2017-04-09T09:37:26.709Z,81.00
2017-04-09T09:38:27.766Z,76.00
2017-04-09T09:39:28.571Z,75.00
2017-04-09T09:40:29.374Z,73.00
2017-04-09T09:41:30.176Z,101.00
2017-04-09T09:42:30.984Z,105.00
2017-04-09T09:43:32.036Z,83.00
2017-04-09T09:44:32.844Z,87.00
2017-04-09T09:45:33.644Z,85.00
2017-04-09T09:46:34.451Z,88.00
2017-04-09T09:47:35.256Z,74.00
2017-04-09T09:48:36.312Z,93.00
2017-04-09T09:49:37.113Z,86.00
2017-04-09T09:50:37.922Z,88.00
2017-04-09T09:51:38.739Z,87.00
2017-04-09T09:52:39.537Z,99.00
2017-04-09T09:53:40.596Z,95.00
2017-04-09T09:54:41.395Z,86.00
2017-04-09T09:55:42.204Z,97.00
2017-04-09T09:56:43.010Z,90.00
2017-04-09T09:57:43.816Z,83.00
2017-04-09T09:58:44.875Z,83.00
2017-04-09T09:59:45.681Z,78.00
2017-04-09T10:00:46.486Z,75.00
2017-04-09T10:01:47.293Z,84.00
2017-04-09T10:02:48.095Z,82.00
2017-04-09T10:03:49.147Z,86.00
2017-04-09T10:04:49.957Z,87.00
2017-04-09T10:05:50.761Z,101.00
2017-04-09T10:06:51.571Z,82.00
2017-04-09T10:07:52.373Z,96.00
2017-04-09T10:08:53.431Z,99.00
2017-04-09T10:09:54.241Z,92.00
2017-04-09T10:10:55.051Z,95.00
2017-04-09T10:11:55.853Z,93.00
2017-04-09T10:12:56.658Z,83.00
2017-04-09T10:13:57.717Z,76.00
2017-04-09T10:14:58.524Z,91.00
2017-04-09T10:15:59.333Z,85.00
2017-04-09T10:17:00.132Z,91.00
2017-04-09T10:18:00.938Z,86.00
2017-04-09T10:19:01.996Z,89.00
2017-04-09T10:20:02.794Z,87.00
2017-04-09T10:21:03.603Z,84.00
2017-04-09T10:22:04.403Z,81.00
2017-04-09T10:23:05.206Z,86.00
2017-04-09T10:24:06.261Z,95.00
2017-04-09T10:25:07.067Z,82.00
2017-04-09T10:26:07.870Z,98.00
2017-04-09T10:27:08.677Z,78.00
2017-04-09T10:28:09.482Z,80.00
2017-04-09T10:29:10.540Z,83.00
2017-04-09T10:30:11.344Z,87.00
2017-04-09T10:31:12.335Z,86.00
2017-04-09T10:32:13.141Z,69.00
2017-04-09T10:33:13.942Z,77.00
2017-04-09T10:34:15.005Z,89.00
2017-04-09T10:35:15.802Z,78.00
2017-04-09T10:36:16.605Z,81.00
2017-04-09T10:37:17.410Z,82.00
2017-04-09T10:38:18.215Z,87.00
2017-04-09T10:39:19.268Z,69.00
2017-04-09T10:40:20.075Z,77.00
2017-04-09T10:41:21.065Z,75.00
2017-04-09T10:42:21.873Z,77.00
2017-04-09T10:43:22.673Z,78.00
2017-04-09T10:44:23.732Z,74.00
2017-04-09T10:45:24.534Z,87.00
2017-04-09T10:46:25.342Z,79.00
2017-04-09T10:47:26.150Z,73.00
2017-04-09T10:48:26.957Z,85.00
2017-04-09T10:49:28.010Z,75.00
2017-04-09T10:50:28.813Z,95.00
2017-04-09T10:51:29.620Z,89.00
2017-04-09T10:52:30.429Z,73.00
2017-04-09T10:53:31.231Z,84.00
2017-04-09T10:54:32.283Z,97.00
2017-04-09T10:55:33.089Z,87.00
2017-04-09T10:56:33.895Z,98.00
2017-04-09T10:57:34.702Z,98.00
2017-04-09T10:58:35.500Z,91.00
2017-04-09T10:59:36.557Z,95.00
2017-04-09T11:00:37.367Z,99.00
2017-04-09T11:01:38.172Z,78.00
2017-04-09T11:02:38.977Z,99.00
2017-04-09T11:03:39.781Z,102.00
2017-04-09T11:04:40.836Z,96.00
2017-04-09T11:05:41.643Z,92.00
2017-04-09T11:06:42.448Z,91.00
2017-04-09T11:07:43.253Z,94.00
2017-04-09T11:08:44.059Z,89.00
2017-04-09T11:09:45.111Z,83.00
2017-04-09T11:10:45.920Z,85.00
2017-04-09T11:11:46.725Z,74.00
2017-04-09T11:12:47.526Z,96.00
2017-04-09T11:13:48.329Z,81.00
2017-04-09T11:14:49.381Z,85.00
2017-04-09T11:15:50.184Z,78.00
2017-04-09T11:16:50.995Z,99.00
2017-04-09T11:17:51.792Z,91.00
2017-04-09T11:18:52.599Z,91.00
2017-04-09T11:19:53.654Z,70.00
2017-04-09T11:20:54.455Z,75.00
2017-04-09T11:21:55.265Z,91.00
2017-04-09T11:22:56.068Z,102.00
2017-04-09T11:23:56.872Z,86.00
2017-04-09T11:24:57.927Z,85.00
2017-04-09T11:25:58.732Z,98.00
2017-04-09T11:26:59.536Z,91.00
2017-04-09T11:28:00.343Z,93.00
2017-04-09T11:29:01.145Z,96.00
2017-04-09T11:30:02.383Z,82.00
2017-04-09T11:31:03.191Z,92.00
2017-04-09T11:32:03.998Z,82.00
2017-04-09T11:33:04.807Z,89.00
2017-04-09T11:34:05.613Z,81.00
2017-04-09T11:35:06.669Z,95.00
2017-04-09T11:36:07.479Z,95.00
2017-04-09T11:37:08.284Z,78.00
2017-04-09T11:38:09.100Z,83.00
2017-04-09T11:39:09.902Z,82.00
2017-04-09T11:40:10.956Z,118.00
2017-04-09T11:41:11.761Z,107.00
2017-04-09T11:42:12.570Z,90.00
2017-04-09T11:43:13.375Z,86.00
2017-04-09T11:44:14.175Z,93.00
2017-04-09T11:45:15.230Z,81.00
2017-04-09T11:46:16.037Z,85.00
2017-04-09T11:47:16.840Z,87.00
2017-04-09T11:48:17.643Z,77.00
2017-04-09T11:49:18.449Z,71.00
2017-04-09T11:50:19.505Z,81.00
2017-04-09T11:51:20.309Z,77.00
2017-04-09T11:52:21.115Z,83.00
2017-04-09T11:53:21.921Z,93.00
2017-04-09T11:54:22.724Z,98.00
2017-04-09T11:55:23.777Z,90.00
2017-04-09T11:56:24.582Z,82.00
2017-04-09T11:57:25.390Z,85.00
2017-04-09T11:58:26.196Z,90.00
2017-04-09T11:59:27.002Z,83.00
2017-04-09T12:00:28.049Z,93.00
2017-04-09T12:01:28.853Z,88.00
2017-04-09T12:02:29.661Z,86.00
2017-04-09T12:03:30.462Z,100.00
2017-04-09T12:04:31.268Z,101.00
2017-04-09T12:05:32.320Z,90.00
2017-04-09T12:06:33.122Z,75.00
2017-04-09T12:07:33.921Z,81.00
2017-04-09T12:08:34.722Z,88.00
2017-04-09T12:09:35.524Z,88.00
2017-04-09T12:10:36.579Z,108.00
2017-04-09T12:11:37.392Z,87.00
2017-04-09T12:12:38.196Z,94.00
2017-04-09T12:13:38.999Z,93.00
2017-04-09T12:14:39.800Z,98.00
2017-04-09T12:15:40.853Z,94.00
2017-04-09T12:16:41.679Z,89.00
2017-04-09T12:17:42.455Z,96.00
2017-04-09T12:18:43.253Z,90.00
2017-04-09T12:19:44.057Z,97.00
2017-04-09T12:20:45.116Z,90.00
2017-04-09T12:21:45.914Z,93.00
2017-04-09T12:22:46.714Z,103.00
2017-04-09T12:23:47.519Z,98.00
2017-04-09T12:24:48.319Z,99.00
2017-04-09T12:25:49.374Z,102.00
2017-04-09T12:26:50.184Z,104.00
2017-04-09T12:27:50.981Z,96.00
2017-04-09T12:28:51.786Z,91.00
2017-04-09T12:29:52.595Z,100.00
2017-04-09T12:30:53.644Z,82.00
2017-04-09T12:31:54.445Z,99.00
2017-04-09T12:32:55.249Z,96.00
2017-04-09T12:33:56.053Z,96.00
2017-04-09T12:34:56.859Z,93.00
2017-04-09T12:35:57.917Z,101.00
2017-04-09T12:36:58.723Z,125.00
2017-04-09T12:37:59.529Z,115.00
2017-04-09T12:39:00.333Z,105.00
2017-04-09T12:40:01.135Z,108.00
2017-04-09T12:41:02.193Z,104.00
2017-04-09T12:42:03.002Z,119.00
2017-04-09T12:43:03.809Z,104.00
2017-04-09T12:44:04.615Z,100.00
2017-04-09T12:45:05.416Z,98.00
2017-04-09T12:46:06.470Z,90.00
2017-04-09T12:47:07.275Z,102.00
2017-04-09T12:48:08.081Z,105.00
2017-04-09T12:49:08.885Z,104.00
2017-04-09T12:50:09.696Z,96.00
2017-04-09T12:51:10.749Z,117.00
2017-04-09T12:52:11.554Z,117.00
2017-04-09T12:53:12.356Z,106.00
2017-04-09T12:54:13.162Z,109.00
2017-04-09T12:55:13.966Z,93.00
2017-04-09T12:56:15.021Z,108.00
2017-04-09T12:57:15.823Z,105.00
2017-04-09T12:58:16.629Z,96.00
2017-04-09T12:59:17.433Z,101.00
2017-04-09T13:00:18.239Z,104.00
2017-04-09T13:01:19.294Z,104.00
2017-04-09T13:02:20.097Z,92.00